Time;durP1;ratioP1;P1;durP2;ratioP2;P2;SDS_P1;SDS_P2;PMS_P1;PMS_P2;Temp;Humidity;BMP_temperature;BMP_pressure;BME280_temperature;BME280_humidity;BME280_pressure;Samples;Min_cycle;Max_cycle;Signal;HPM_P1;HPM_P2
2023/04/17 00:02:15;;;;;;;31.67;26.57;;;11.40;99.90;;;;;;5019843;28;20209;-77
2023/04/17 00:04:41;;;;;;;32.90;26.00;;;11.40;99.90;;;;;;5014183;28;20172;-76
2023/04/17 00:07:07;;;;;;;36.70;27.90;;;11.40;99.90;;;;;;5025744;28;20178;-76
2023/04/17 00:09:32;;;;;;;27.73;23.10;;;11.40;99.90;;;;;;5019617;28;20600;-76
2023/04/17 00:11:58;;;;;;;30.93;25.63;;;11.50;99.90;;;;;;5023500;28;20211;-76
2023/04/17 00:14:24;;;;;;;36.20;25.77;;;11.40;99.90;;;;;;5018272;28;20247;-76
2023/04/17 00:16:51;;;;;;;32.70;26.53;;;11.40;99.90;;;;;;5022768;28;20340;-76
2023/04/17 00:19:16;;;;;;;29.77;25.07;;;11.40;99.90;;;;;;5039243;28;20503;-75
2023/04/17 00:21:42;;;;;;;34.40;26.23;;;11.40;99.90;;;;;;5019623;28;20464;-76
2023/04/17 00:24:08;;;;;;;32.17;25.53;;;11.40;99.90;;;;;;5021217;28;20324;-76
2023/04/17 00:26:33;;;;;;;29.00;25.23;;;11.40;99.90;;;;;;5010397;28;20214;-76
2023/04/17 00:29:02;;;;;;;34.27;25.10;;;11.40;99.90;;;;;;5024241;28;20229;-76
2023/04/17 00:31:28;;;;;;;31.63;24.00;;;11.40;99.90;;;;;;5010367;28;20206;-76
2023/04/17 00:33:53;;;;;;;27.10;24.17;;;11.40;99.90;;;;;;5010300;28;20422;-77
2023/04/17 00:36:19;;;;;;;28.00;23.80;;;11.40;99.90;;;;;;5010654;28;20187;-76
2023/04/17 00:38:45;;;;;;;31.00;24.20;;;11.50;99.90;;;;;;5025308;28;20625;-77
2023/04/17 00:41:10;;;;;;;42.13;25.13;;;11.40;99.90;;;;;;5009892;28;20506;-76
2023/04/17 00:43:37;;;;;;;27.73;23.80;;;11.40;99.90;;;;;;5010081;28;20191;-76
2023/04/17 00:46:04;;;;;;;30.20;25.37;;;11.40;99.90;;;;;;5010346;28;20215;-77
2023/04/17 00:48:32;;;;;;;31.13;25.17;;;11.40;99.90;;;;;;5010248;28;20414;-76
2023/04/17 00:51:01;;;;;;;30.37;25.37;;;11.30;99.90;;;;;;5010173;28;20537;-77
2023/04/17 00:53:29;;;;;;;29.23;24.73;;;11.20;99.90;;;;;;5009956;28;20485;-76
2023/04/17 00:55:56;;;;;;;30.30;24.37;;;11.20;99.90;;;;;;5008766;28;20911;-76
2023/04/17 00:58:22;;;;;;;31.53;25.47;;;11.30;99.90;;;;;;5009943;28;20437;-76
2023/04/17 01:00:48;;;;;;;31.17;23.97;;;11.20;99.90;;;;;;5009684;28;20914;-76
2023/04/17 01:03:15;;;;;;;31.33;24.30;;;11.20;99.90;;;;;;5008435;28;20448;-77
2023/04/17 01:05:47;;;;;;;30.03;24.50;;;11.20;99.90;;;;;;5010057;28;20497;-76
2023/04/17 01:08:13;;;;;;;27.97;24.20;;;11.20;99.90;;;;;;5009782;28;20472;-76
2023/04/17 01:10:39;;;;;;;31.70;23.97;;;11.20;99.90;;;;;;5009454;28;20445;-76
2023/04/17 01:13:06;;;;;;;28.77;23.27;;;11.20;99.90;;;;;;5009712;28;20419;-76
2023/04/17 01:15:32;;;;;;;26.60;23.23;;;11.20;99.90;;;;;;5008463;28;20551;-76
2023/04/17 01:17:58;;;;;;;27.27;23.83;;;11.20;99.90;;;;;;5009594;28;20422;-76
2023/04/17 01:20:24;;;;;;;29.83;24.80;;;11.20;99.90;;;;;;5009361;28;20512;-76
2023/04/17 01:22:50;;;;;;;29.97;23.50;;;11.20;99.90;;;;;;5009601;28;20175;-76
2023/04/17 01:25:17;;;;;;;28.90;23.97;;;11.20;99.90;;;;;;5008679;28;20241;-76
2023/04/17 01:27:43;;;;;;;30.00;24.10;;;11.20;99.90;;;;;;5024657;28;20453;-76
2023/04/17 01:30:09;;;;;;;27.07;23.90;;;11.20;99.90;;;;;;5009084;28;20450;-77
2023/04/17 01:32:35;;;;;;;27.53;23.10;;;11.20;99.90;;;;;;5009728;28;20740;-77
2023/04/17 01:35:01;;;;;;;27.20;24.20;;;11.20;99.90;;;;;;5009239;28;20497;-76
2023/04/17 01:37:26;;;;;;;25.70;22.87;;;11.20;99.90;;;;;;5024821;28;20186;-76
2023/04/17 01:39:52;;;;;;;30.90;24.57;;;11.20;99.90;;;;;;5009132;28;20211;-76
2023/04/17 01:42:18;;;;;;;28.17;23.37;;;11.30;99.90;;;;;;5009460;28;20192;-76
2023/04/17 01:44:44;;;;;;;27.73;23.67;;;11.20;99.90;;;;;;5024173;28;20418;-75
2023/04/17 01:47:10;;;;;;;25.83;22.33;;;11.20;99.90;;;;;;5009098;28;20197;-76
2023/04/17 01:49:35;;;;;;;25.50;22.70;;;11.10;99.90;;;;;;5008486;28;20426;-77
2023/04/17 01:52:01;;;;;;;29.17;23.80;;;11.10;99.90;;;;;;5009329;28;20554;-76
2023/04/17 01:54:27;;;;;;;28.80;24.57;;;11.10;99.90;;;;;;5008684;28;20206;-76
2023/04/17 01:56:52;;;;;;;26.10;23.07;;;11.10;99.90;;;;;;4989582;28;20656;-77
2023/04/17 01:59:18;;;;;;;24.57;21.57;;;11.10;99.90;;;;;;4989561;28;20267;-76
2023/04/17 02:01:44;;;;;;;26.13;22.90;;;11.10;99.90;;;;;;4989270;28;20254;-76
2023/04/17 02:04:09;;;;;;;26.17;21.70;;;11.00;99.90;;;;;;4989381;28;20186;-76
2023/04/17 02:06:35;;;;;;;27.53;23.10;;;11.00;99.90;;;;;;4989551;28;20573;-76
2023/04/17 02:09:01;;;;;;;28.10;24.13;;;11.00;99.90;;;;;;4989324;28;20183;-76
2023/04/17 02:11:27;;;;;;;27.67;23.47;;;11.00;99.90;;;;;;4989193;28;20227;-76
2023/04/17 02:13:53;;;;;;;25.00;22.30;;;11.00;99.90;;;;;;5007427;28;20458;-76
2023/04/17 02:16:20;;;;;;;28.90;24.73;;;11.00;99.90;;;;;;5009177;28;20179;-76
2023/04/17 02:18:47;;;;;;;30.23;22.90;;;11.00;99.90;;;;;;5008897;28;20688;-76
2023/04/17 02:21:12;;;;;;;27.43;23.00;;;11.00;99.90;;;;;;5008566;28;20457;-76
2023/04/17 02:23:38;;;;;;;29.67;23.60;;;11.00;99.90;;;;;;5007718;28;20417;-76
2023/04/17 02:26:04;;;;;;;26.27;21.43;;;11.00;99.90;;;;;;5024120;28;20179;-76
2023/04/17 02:28:30;;;;;;;25.57;22.37;;;11.00;99.90;;;;;;5007430;28;20179;-76
2023/04/17 02:30:56;;;;;;;29.47;23.70;;;11.00;99.90;;;;;;5023822;28;21032;-76
2023/04/17 02:33:22;;;;;;;26.83;23.93;;;11.00;99.90;;;;;;5008450;28;20712;-76
2023/04/17 02:35:47;;;;;;;26.13;23.30;;;10.90;99.90;;;;;;5024048;28;20233;-77
2023/04/17 02:38:13;;;;;;;26.40;23.20;;;10.90;99.90;;;;;;5023684;28;20430;-76
2023/04/17 02:40:39;;;;;;;28.50;23.37;;;10.90;99.90;;;;;;5008429;28;20206;-75
2023/04/17 02:43:04;;;;;;;30.07;24.10;;;10.90;99.90;;;;;;5008636;28;20202;-76
2023/04/17 02:45:30;;;;;;;25.67;22.80;;;10.80;99.90;;;;;;5008991;28;20186;-76
2023/04/17 02:47:56;;;;;;;27.33;24.27;;;10.90;99.90;;;;;;5008521;28;20537;-76
2023/04/17 02:50:22;;;;;;;27.93;22.87;;;10.80;99.90;;;;;;5008318;28;20210;-77
2023/04/17 02:52:47;;;;;;;29.47;24.77;;;10.80;99.90;;;;;;5008565;28;20253;-77
2023/04/17 02:55:13;;;;;;;26.30;23.40;;;10.80;99.90;;;;;;5016862;28;20652;-77
2023/04/17 02:57:38;;;;;;;27.93;23.20;;;10.80;99.90;;;;;;4988943;28;20180;-77
2023/04/17 03:00:12;;;;;;;25.83;23.00;;;10.70;99.90;;;;;;5003472;28;20748;-76
2023/04/17 03:02:38;;;;;;;25.40;22.07;;;10.60;99.90;;;;;;5006824;28;20250;-76
2023/04/17 03:05:05;;;;;;;28.10;23.63;;;10.70;99.90;;;;;;4992165;28;20419;-77
2023/04/17 03:07:31;;;;;;;28.17;24.00;;;10.60;99.90;;;;;;4992441;28;20172;-76
2023/04/17 03:09:57;;;;;;;27.10;23.17;;;10.60;99.90;;;;;;4992344;28;20441;-76
2023/04/17 03:12:24;;;;;;;27.93;23.87;;;10.60;99.90;;;;;;5007557;28;20964;-76
2023/04/17 03:14:50;;;;;;;29.80;23.60;;;10.60;99.90;;;;;;5002999;28;21033;-77
2023/04/17 03:17:16;;;;;;;28.53;23.17;;;10.60;99.90;;;;;;5011719;28;20426;-76
2023/04/17 03:19:42;;;;;;;32.70;23.87;;;10.50;99.90;;;;;;5011653;28;20705;-77
2023/04/17 03:22:08;;;;;;;28.67;23.30;;;10.60;99.90;;;;;;5011756;28;20472;-76
2023/04/17 03:24:33;;;;;;;28.40;22.77;;;10.60;99.90;;;;;;5010693;28;20183;-77
2023/04/17 03:27:01;;;;;;;30.30;25.57;;;10.60;99.90;;;;;;5011509;28;20181;-76
2023/04/17 03:29:26;;;;;;;29.20;24.10;;;10.60;99.90;;;;;;5011599;28;20681;-77
2023/04/17 03:31:52;;;;;;;27.00;24.10;;;10.60;99.90;;;;;;5026696;28;20485;-76
2023/04/17 03:34:20;;;;;;;31.10;24.60;;;10.50;99.90;;;;;;5011398;28;20195;-76
2023/04/17 03:36:46;;;;;;;28.13;23.73;;;10.50;99.90;;;;;;5011401;28;20691;-77
2023/04/17 03:39:11;;;;;;;26.67;23.70;;;10.50;99.90;;;;;;5027398;28;20440;-77
2023/04/17 03:41:37;;;;;;;27.10;24.03;;;10.40;99.90;;;;;;5011310;28;20496;-77
2023/04/17 03:44:04;;;;;;;27.60;23.60;;;10.50;99.90;;;;;;5011526;28;20214;-77
2023/04/17 03:46:30;;;;;;;28.70;24.93;;;10.50;99.90;;;;;;5011429;28;20855;-77
2023/04/17 03:48:56;;;;;;;31.77;23.97;;;10.50;99.90;;;;;;5011404;28;20414;-78
2023/04/17 03:51:22;;;;;;;28.07;23.70;;;10.50;99.90;;;;;;5010897;28;20512;-77
2023/04/17 03:53:47;;;;;;;31.63;25.67;;;10.40;99.90;;;;;;5026403;28;20728;-77
2023/04/17 03:56:13;;;;;;;31.33;25.10;;;10.50;99.90;;;;;;4996504;28;20184;-77
2023/04/17 03:58:39;;;;;;;34.13;25.13;;;10.50;99.90;;;;;;5006454;28;20621;-77
2023/04/17 04:01:09;;;;;;;34.60;24.90;;;10.50;99.90;;;;;;5006336;28;20582;-78
2023/04/17 04:03:38;;;;;;;32.33;24.90;;;10.50;99.90;;;;;;4991151;28;20262;-77
2023/04/17 04:06:03;;;;;;;29.27;23.90;;;10.50;99.90;;;;;;4991380;28;20415;-78
2023/04/17 04:08:29;;;;;;;32.83;24.50;;;10.40;99.90;;;;;;5006380;28;20407;-77
2023/04/17 04:10:55;;;;;;;44.27;25.67;;;10.40;99.90;;;;;;4991396;28;20565;-77
2023/04/17 04:13:20;;;;;;;29.13;24.43;;;10.40;99.90;;;;;;4990793;28;20183;-77
2023/04/17 04:15:46;;;;;;;34.10;25.13;;;10.40;99.90;;;;;;5009702;28;20536;-77
2023/04/17 04:18:12;;;;;;;29.00;24.33;;;10.40;99.90;;;;;;5010739;28;20189;-77
2023/04/17 04:20:37;;;;;;;36.27;26.47;;;10.40;99.90;;;;;;5010656;28;20214;-77
2023/04/17 04:23:03;;;;;;;31.30;26.87;;;10.40;99.90;;;;;;5009913;28;20179;-77
2023/04/17 04:25:29;;;;;;;28.00;23.77;;;10.30;99.90;;;;;;5010642;28;20674;-78
2023/04/17 04:27:55;;;;;;;30.67;24.80;;;10.20;99.90;;;;;;5010609;28;20163;-77
2023/04/17 04:30:24;;;;;;;32.90;25.20;;;10.00;99.90;;;;;;5010601;28;20438;-77
2023/04/17 04:32:50;;;;;;;31.03;24.70;;;10.30;99.90;;;;;;5010844;28;20421;-78
2023/04/17 04:35:16;;;;;;;31.37;24.60;;;10.20;99.90;;;;;;5010509;28;20419;-77
2023/04/17 04:37:45;;;;;;;31.27;24.80;;;10.30;99.90;;;;;;5025492;28;20183;-77
2023/04/17 04:40:11;;;;;;;31.37;25.63;;;10.30;99.90;;;;;;5010280;28;20490;-77
2023/04/17 04:42:38;;;;;;;27.00;22.73;;;10.30;99.90;;;;;;5010495;28;20419;-77
2023/04/17 04:45:05;;;;;;;33.57;25.07;;;10.30;99.90;;;;;;5010160;28;20410;-77
2023/04/17 04:47:31;;;;;;;30.73;24.50;;;10.30;99.90;;;;;;5025354;28;20410;-77
2023/04/17 04:49:57;;;;;;;30.10;25.37;;;10.30;99.90;;;;;;5010064;28;20820;-76
2023/04/17 04:52:22;;;;;;;28.83;24.73;;;10.30;99.90;;;;;;5025387;28;20229;-78
2023/04/17 04:54:48;;;;;;;29.00;24.60;;;10.30;99.90;;;;;;5006682;28;20176;-77
2023/04/17 04:57:14;;;;;;;29.53;25.07;;;10.30;99.90;;;;;;4990287;28;20292;-77
2023/04/17 04:59:39;;;;;;;28.77;23.67;;;10.30;99.90;;;;;;4990102;28;20207;-77
2023/04/17 05:02:05;;;;;;;26.30;23.27;;;10.30;99.90;;;;;;4989224;28;20233;-76
2023/04/17 05:04:30;;;;;;;30.53;24.20;;;10.30;99.90;;;;;;5005159;28;20208;-77
2023/04/17 05:06:56;;;;;;;30.03;24.97;;;10.30;99.90;;;;;;4990136;28;20175;-77
2023/04/17 05:09:22;;;;;;;31.13;24.33;;;10.30;99.90;;;;;;4990104;28;20183;-78
2023/04/17 05:11:48;;;;;;;29.33;24.80;;;10.20;99.90;;;;;;4990316;28;20817;-78
2023/04/17 05:14:13;;;;;;;28.33;24.40;;;10.20;99.90;;;;;;5010841;28;20186;-77
2023/04/17 05:16:40;;;;;;;28.57;24.13;;;10.20;99.90;;;;;;5009691;28;20606;-77
2023/04/17 05:19:05;;;;;;;32.40;25.80;;;10.20;99.90;;;;;;5009478;28;20249;-77
2023/04/17 05:21:31;;;;;;;32.67;25.47;;;10.20;99.90;;;;;;5024452;28;20469;-77
2023/04/17 05:23:57;;;;;;;29.70;23.90;;;10.20;99.90;;;;;;5022851;28;20680;-77
2023/04/17 05:26:23;;;;;;;28.40;24.03;;;10.20;99.90;;;;;;5009571;28;20179;-78
2023/04/17 05:28:49;;;;;;;30.87;25.70;;;10.10;99.90;;;;;;5009865;28;20726;-77
2023/04/17 05:31:15;;;;;;;30.83;24.63;;;10.10;99.90;;;;;;5009200;28;20438;-77
2023/04/17 05:33:41;;;;;;;31.00;24.63;;;10.20;99.90;;;;;;5009081;28;20198;-78
2023/04/17 05:36:07;;;;;;;33.57;26.43;;;10.20;99.90;;;;;;5008135;28;20896;-76
2023/04/17 05:38:32;;;;;;;34.57;25.90;;;10.10;99.90;;;;;;5008999;28;20600;-76
2023/04/17 05:40:58;;;;;;;30.37;24.97;;;10.20;99.90;;;;;;5009122;28;20218;-77
2023/04/17 05:43:24;;;;;;;30.90;24.93;;;10.10;99.90;;;;;;5024001;28;20175;-77
2023/04/17 05:45:49;;;;;;;30.53;25.07;;;10.20;99.90;;;;;;5008968;28;20183;-76
2023/04/17 05:48:16;;;;;;;31.43;24.03;;;10.20;99.90;;;;;;5008968;28;20671;-76
2023/04/17 05:50:42;;;;;;;32.17;25.60;;;10.20;99.90;;;;;;5008866;28;20531;-76
2023/04/17 05:53:08;;;;;;;30.00;24.57;;;10.20;99.90;;;;;;5009040;28;20187;-77
2023/04/17 05:55:33;;;;;;;32.47;24.97;;;10.10;99.90;;;;;;5008435;28;20194;-77
2023/04/17 05:57:59;;;;;;;28.80;23.27;;;10.10;99.90;;;;;;5024318;28;20588;-76
2023/04/17 06:00:24;;;;;;;29.13;23.23;;;10.10;99.90;;;;;;5008852;28;20206;-76
2023/04/17 06:02:51;;;;;;;31.87;24.03;;;10.20;99.90;;;;;;5008369;28;20640;-76
2023/04/17 06:05:17;;;;;;;27.93;23.23;;;10.10;99.90;;;;;;5008605;28;20186;-76
2023/04/17 06:07:43;;;;;;;30.60;24.83;;;10.10;99.90;;;;;;5007211;28;20930;-76
2023/04/17 06:10:09;;;;;;;27.70;24.70;;;10.10;99.90;;;;;;5008786;28;20440;-77
2023/04/17 06:12:38;;;;;;;29.63;24.83;;;10.10;99.90;;;;;;5008811;28;20410;-77
2023/04/17 06:15:04;;;;;;;28.07;22.87;;;10.10;99.90;;;;;;4990981;28;20872;-76
2023/04/17 06:17:30;;;;;;;27.93;22.00;;;10.10;99.90;;;;;;5008565;28;20449;-76
2023/04/17 06:19:56;;;;;;;26.00;22.03;;;10.20;99.90;;;;;;5023829;28;20477;-76
2023/04/17 06:22:22;;;;;;;31.40;23.87;;;10.20;99.90;;;;;;5008899;28;20187;-76
2023/04/17 06:24:47;;;;;;;27.53;23.07;;;10.20;99.90;;;;;;5008489;28;20253;-76
2023/04/17 06:27:13;;;;;;;28.13;23.50;;;10.20;99.90;;;;;;5008983;28;20276;-77
2023/04/17 06:29:39;;;;;;;29.47;24.07;;;10.20;99.90;;;;;;5008654;28;20589;-77
2023/04/17 06:32:05;;;;;;;27.13;23.07;;;10.20;99.90;;;;;;5024163;28;20190;-77
2023/04/17 06:34:31;;;;;;;27.47;23.23;;;10.30;99.90;;;;;;5008384;28;20202;-77
2023/04/17 06:36:58;;;;;;;28.20;23.93;;;10.20;99.90;;;;;;5027050;28;20426;-77
2023/04/17 06:39:23;;;;;;;25.47;22.07;;;10.20;99.90;;;;;;5027506;28;20444;-76
2023/04/17 06:41:49;;;;;;;28.10;22.63;;;10.30;99.90;;;;;;5012449;28;20462;-77
2023/04/17 06:44:15;;;;;;;30.30;25.17;;;10.30;99.90;;;;;;5012203;28;20183;-77
2023/04/17 06:46:41;;;;;;;30.60;23.90;;;10.20;99.90;;;;;;5012055;28;20265;-76
2023/04/17 06:49:06;;;;;;;31.60;23.97;;;10.20;99.90;;;;;;5011763;28;20817;-77
2023/04/17 06:51:32;;;;;;;28.90;23.83;;;10.30;99.90;;;;;;5011571;28;20214;-77
2023/04/17 06:53:58;;;;;;;26.37;23.13;;;10.30;99.90;;;;;;5011593;28;20187;-77
2023/04/17 06:56:24;;;;;;;33.80;25.37;;;10.30;99.90;;;;;;5008932;28;20660;-77
2023/04/17 06:58:51;;;;;;;27.33;23.07;;;10.40;99.90;;;;;;5011521;28;20413;-77
2023/04/17 07:01:16;;;;;;;27.40;23.50;;;10.40;99.90;;;;;;5010188;28;20465;-76
2023/04/17 07:03:42;;;;;;;31.40;23.90;;;10.40;99.90;;;;;;5010990;28;20963;-77
2023/04/17 07:06:08;;;;;;;27.83;23.57;;;10.40;99.90;;;;;;5010761;28;20701;-77
2023/04/17 07:08:34;;;;;;;30.97;23.97;;;10.40;99.90;;;;;;5010552;28;20183;-77
2023/04/17 07:11:01;;;;;;;28.13;24.40;;;10.00;99.90;;;;;;5011858;28;20926;-77
2023/04/17 07:13:30;;;;;;;30.67;23.97;;;10.40;99.90;;;;;;5012234;28;20429;-76
2023/04/17 07:15:57;;;;;;;32.03;24.90;;;10.40;99.90;;;;;;5012908;28;20425;-77
2023/04/17 07:18:25;;;;;;;31.30;25.10;;;10.40;99.90;;;;;;5012484;28;20414;-77
2023/04/17 07:20:51;;;;;;;29.30;23.93;;;10.50;99.90;;;;;;5011243;28;20465;-77
2023/04/17 07:23:17;;;;;;;32.20;25.60;;;10.50;99.90;;;;;;5011561;28;20425;-76
2023/04/17 07:25:42;;;;;;;33.17;27.17;;;10.50;99.90;;;;;;5011511;28;20183;-76
2023/04/17 07:28:08;;;;;;;32.00;25.73;;;10.50;99.90;;;;;;5011243;28;20175;-77
2023/04/17 07:30:34;;;;;;;30.87;25.60;;;10.50;99.90;;;;;;5012229;28;20261;-77
2023/04/17 07:33:00;;;;;;;30.37;25.23;;;10.50;99.90;;;;;;5011156;28;20422;-77
2023/04/17 07:35:26;;;;;;;31.17;26.77;;;10.50;99.90;;;;;;5011079;28;20205;-77
2023/04/17 07:37:52;;;;;;;29.90;24.50;;;10.50;99.90;;;;;;5011375;28;20934;-77
2023/04/17 07:40:18;;;;;;;30.83;25.30;;;10.50;99.90;;;;;;5011192;28;20788;-78
2023/04/17 07:42:44;;;;;;;32.67;26.20;;;10.60;99.90;;;;;;5011417;28;20515;-76
2023/04/17 07:45:10;;;;;;;30.40;24.67;;;10.60;99.90;;;;;;5011299;28;20237;-77
2023/04/17 07:47:36;;;;;;;34.03;25.80;;;10.50;99.90;;;;;;5010549;28;20418;-77
2023/04/17 07:50:02;;;;;;;36.90;27.60;;;10.50;99.90;;;;;;5011133;28;20436;-77
2023/04/17 07:52:28;;;;;;;31.93;26.50;;;10.50;99.90;;;;;;5011295;28;20195;-77
2023/04/17 07:54:57;;;;;;;34.20;27.47;;;10.60;99.90;;;;;;5004948;28;20490;-77
2023/04/17 07:57:25;;;;;;;32.77;26.30;;;10.70;99.90;;;;;;4991530;28;20419;-77
2023/04/17 07:59:54;;;;;;;35.47;27.93;;;10.70;99.90;;;;;;5006277;28;20411;-77
2023/04/17 08:02:20;;;;;;;32.10;26.93;;;10.80;99.90;;;;;;4991828;28;21064;-77
2023/04/17 08:04:46;;;;;;;34.13;27.40;;;10.80;99.90;;;;;;4991207;28;20494;-77
2023/04/17 08:07:13;;;;;;;35.40;28.20;;;10.70;99.90;;;;;;4991448;28;20524;-77
2023/04/17 08:09:39;;;;;;;36.87;28.40;;;10.80;99.90;;;;;;4991241;28;20664;-77
2023/04/17 08:12:05;;;;;;;33.73;27.50;;;10.80;99.90;;;;;;4991509;28;20414;-77
2023/04/17 08:14:31;;;;;;;32.13;28.00;;;10.80;99.90;;;;;;5014260;28;20839;-77
2023/04/17 08:16:57;;;;;;;35.50;28.47;;;10.80;99.90;;;;;;5010687;28;20640;-78
2023/04/17 08:19:22;;;;;;;35.77;29.10;;;10.90;99.90;;;;;;5025774;28;20426;-77
2023/04/17 08:21:49;;;;;;;34.40;29.17;;;10.90;99.90;;;;;;5010637;28;20218;-77
2023/04/17 08:24:16;;;;;;;38.57;29.73;;;10.90;99.90;;;;;;5010508;28;20190;-77
2023/04/17 08:26:42;;;;;;;37.53;30.00;;;11.00;99.90;;;;;;5010800;28;20414;-77
2023/04/17 08:29:08;;;;;;;40.20;32.90;;;11.00;99.90;;;;;;5010349;28;20485;-77
2023/04/17 08:31:38;;;;;;;37.80;30.10;;;11.00;99.90;;;;;;5025531;28;20569;-77
2023/04/17 08:34:04;;;;;;;38.53;31.27;;;11.10;99.90;;;;;;5025452;28;20533;-77
2023/04/17 08:36:30;;;;;;;35.73;29.20;;;11.20;99.90;;;;;;5025885;28;20429;-77
2023/04/17 08:38:56;;;;;;;38.27;31.40;;;11.20;99.90;;;;;;5010384;28;20210;-77
2023/04/17 08:41:25;;;;;;;41.87;31.53;;;11.20;99.90;;;;;;5010401;28;20585;-77
2023/04/17 08:43:52;;;;;;;36.77;30.70;;;11.20;99.90;;;;;;5010929;28;20425;-77
2023/04/17 08:46:20;;;;;;;35.90;30.97;;;11.30;99.90;;;;;;5011935;28;20414;-77
2023/04/17 08:48:46;;;;;;;35.40;30.07;;;11.30;99.90;;;;;;5012313;28;20414;-77
2023/04/17 08:51:13;;;;;;;31.90;27.73;;;11.40;99.90;;;;;;5012001;28;20449;-77
2023/04/17 08:53:38;;;;;;;34.90;28.33;;;11.50;99.90;;;;;;5011486;28;20505;-77
2023/04/17 08:56:05;;;;;;;30.90;26.97;;;11.50;99.90;;;;;;4998338;28;20530;-77
2023/04/17 08:58:32;;;;;;;33.07;26.70;;;11.60;99.90;;;;;;5007069;28;20176;-77
2023/04/17 09:01:08;;;;;;;33.40;26.53;;;11.60;99.90;;;;;;5007170;28;21021;-77
2023/04/17 09:03:42;;;;;;;34.17;26.53;;;11.70;99.90;;;;;;5007510;28;20453;-77
2023/04/17 09:06:09;;;;;;;28.93;24.57;;;11.70;99.90;;;;;;4990882;28;20995;-77
2023/04/17 09:08:35;;;;;;;26.97;22.60;;;11.80;99.90;;;;;;4992014;28;20425;-77
2023/04/17 09:11:01;;;;;;;25.53;21.60;;;11.80;99.90;;;;;;5007423;28;20466;-77
2023/04/17 09:13:29;;;;;;;26.60;22.57;;;11.70;99.90;;;;;;5007407;28;20423;-77
2023/04/17 09:16:04;;;;;;;24.63;21.33;;;11.70;99.90;;;;;;5026785;28;20194;-77
2023/04/17 09:18:31;;;;;;;28.63;20.23;;;11.80;99.90;;;;;;5011578;28;20679;-77
2023/04/17 09:20:59;;;;;;;21.87;19.60;;;11.80;99.90;;;;;;5026355;28;21063;-77
2023/04/17 09:23:29;;;;;;;22.23;19.33;;;11.90;99.90;;;;;;5011415;28;20501;-77
2023/04/17 09:26:14;;;;;;;21.23;18.90;;;12.00;99.90;;;;;;5026778;28;20461;-77
2023/04/17 09:28:58;;;;;;;20.27;17.80;;;12.10;99.90;;;;;;5011263;28;20452;-77
2023/04/17 09:31:29;;;;;;;20.27;17.23;;;12.10;99.90;;;;;;5026506;28;20445;-77
2023/04/17 09:34:02;;;;;;;18.73;16.70;;;12.20;99.90;;;;;;5026456;28;20418;-77
2023/04/17 09:36:30;;;;;;;18.67;16.77;;;12.30;99.90;;;;;;5011253;28;20418;-77
2023/04/17 09:38:58;;;;;;;19.53;17.40;;;12.40;99.90;;;;;;5010727;28;20507;-77
2023/04/17 09:41:33;;;;;;;18.20;16.17;;;12.50;99.90;;;;;;5026036;28;20474;-77
2023/04/17 09:44:00;;;;;;;17.60;15.67;;;12.60;99.90;;;;;;5011051;28;20749;-77
2023/04/17 09:46:47;;;;;;;19.70;15.23;;;12.70;99.90;;;;;;5026274;28;20418;-77
2023/04/17 09:49:35;;;;;;;17.03;14.50;;;12.80;99.90;;;;;;5026767;28;20437;-77
2023/04/17 09:52:02;;;;;;;17.50;15.10;;;12.90;99.90;;;;;;5011071;28;20466;-77
2023/04/17 09:54:36;;;;;;;17.33;13.70;;;13.00;99.90;;;;;;5010222;28;20426;-77
2023/04/17 09:57:03;;;;;;;15.53;13.93;;;13.00;99.90;;;;;;5006607;28;20420;-77
2023/04/17 09:59:29;;;;;;;18.20;13.97;;;13.00;99.90;;;;;;4991063;28;20423;-77
2023/04/17 10:01:55;;;;;;;14.73;12.90;;;13.10;99.90;;;;;;4991529;28;20466;-77
2023/04/17 10:04:21;;;;;;;14.20;12.70;;;13.20;99.90;;;;;;4989475;28;20464;-77
2023/04/17 10:06:48;;;;;;;12.40;11.10;;;13.30;99.90;;;;;;5006080;28;20419;-77
2023/04/17 10:09:14;;;;;;;16.33;12.80;;;13.40;99.90;;;;;;4991297;28;20514;-77
2023/04/17 10:11:43;;;;;;;16.40;13.13;;;13.60;99.90;;;;;;5005550;28;20609;-77
2023/04/17 10:14:30;;;;;;;14.33;12.83;;;13.70;99.90;;;;;;4995853;28;20178;-77
2023/04/17 10:16:55;;;;;;;12.27;10.97;;;13.80;99.90;;;;;;5010252;28;21000;-77
2023/04/17 10:19:26;;;;;;;13.13;11.90;;;13.90;99.90;;;;;;5010481;28;20434;-77
2023/04/17 10:22:16;;;;;;;13.30;11.57;;;13.90;99.90;;;;;;5025924;28;20227;-77
2023/04/17 10:25:02;;;;;;;14.27;12.80;;;13.90;99.90;;;;;;5020318;28;20870;-77
2023/04/17 10:27:31;;;;;;;15.20;12.70;;;13.90;99.90;;;;;;5023653;28;20436;-77
2023/04/17 10:30:04;;;;;;;15.50;12.20;;;13.90;99.90;;;;;;5010038;28;20499;-77
2023/04/17 10:32:32;;;;;;;12.37;10.93;;;13.90;99.90;;;;;;5025949;28;20418;-77
2023/04/17 10:35:16;;;;;;;14.57;11.33;;;13.90;99.90;;;;;;5025704;28;20425;-77
2023/04/17 10:37:49;;;;;;;16.60;12.10;;;14.00;99.90;;;;;;5008961;28;20449;-77
2023/04/17 10:40:28;;;;;;;13.50;10.50;;;14.20;99.90;;;;;;5010435;28;21016;-77
2023/04/17 10:43:10;;;;;;;13.00;10.83;;;14.20;99.90;;;;;;5025302;28;20457;-77
2023/04/17 10:45:55;;;;;;;12.53;10.73;;;14.30;99.90;;;;;;5010155;28;20410;-77
2023/04/17 10:48:27;;;;;;;15.47;10.20;;;14.40;99.90;;;;;;5010047;28;20421;-77
2023/04/17 10:50:54;;;;;;;11.53;10.20;;;14.40;99.90;;;;;;5009941;28;20442;-77
2023/04/17 10:53:39;;;;;;;11.10;10.00;;;14.50;99.90;;;;;;5009401;28;20836;-77
2023/04/17 10:56:05;;;;;;;12.20;10.90;;;14.50;99.90;;;;;;4996933;28;20449;-77
2023/04/17 10:58:31;;;;;;;13.10;11.07;;;14.60;99.90;;;;;;4990897;28;20547;-78
2023/04/17 11:01:02;;;;;;;12.93;11.20;;;14.70;99.90;;;;;;5005827;28;20468;-77
2023/04/17 11:03:29;;;;;;;13.10;11.80;;;14.70;99.90;;;;;;5005446;28;20275;-76
2023/04/17 11:05:58;;;;;;;12.83;10.97;;;14.80;99.90;;;;;;4989419;28;21008;-77
2023/04/17 11:08:24;;;;;;;11.37;10.27;;;14.80;99.90;;;;;;4990493;28;20418;-77
2023/04/17 11:10:55;;;;;;;13.53;12.20;;;14.80;99.90;;;;;;4990578;28;20434;-77
2023/04/17 11:13:20;;;;;;;11.83;10.60;;;14.70;99.90;;;;;;5005859;28;20455;-77
2023/04/17 11:15:46;;;;;;;12.33;10.80;;;14.70;99.90;;;;;;5024198;28;20854;-77
2023/04/17 11:18:13;;;;;;;13.50;11.13;;;14.70;99.90;;;;;;5014876;28;20445;-77
2023/04/17 11:20:40;;;;;;;11.60;10.50;;;14.60;99.90;;;;;;5026397;28;20210;-77
2023/04/17 11:23:06;;;;;;;10.63;8.70;;;14.60;99.90;;;;;;5027808;28;20421;-76
2023/04/17 11:25:32;;;;;;;11.10;9.90;;;14.70;99.90;;;;;;5022713;28;20983;-78
2023/04/17 11:28:04;;;;;;;10.00;9.00;;;14.70;99.90;;;;;;5013224;28;20561;-76
2023/04/17 11:30:31;;;;;;;11.20;10.10;;;14.70;99.90;;;;;;5012115;28;20446;-77
2023/04/17 11:33:01;;;;;;;10.40;9.23;;;14.80;99.90;;;;;;5008257;28;20484;-78
2023/04/17 11:35:38;;;;;;;12.30;11.10;;;14.90;99.90;;;;;;5011712;28;20940;-77
2023/04/17 11:38:20;;;;;;;11.53;10.33;;;14.90;99.90;;;;;;4992750;28;20495;-77
2023/04/17 11:40:59;;;;;;;12.53;10.50;;;15.00;99.90;;;;;;5010428;28;20466;-77
2023/04/17 11:43:26;;;;;;;11.40;10.33;;;15.00;99.90;;;;;;5010612;28;20991;-76
2023/04/17 11:45:57;;;;;;;10.10;9.10;;;15.10;99.90;;;;;;5011247;28;20465;-77
2023/04/17 11:48:26;;;;;;;11.20;10.20;;;15.10;99.90;;;;;;5011728;28;20640;-77
2023/04/17 11:51:02;;;;;;;11.07;9.97;;;15.10;99.10;;;;;;5011764;28;20784;-78
2023/04/17 11:53:29;;;;;;;11.13;9.90;;;15.00;99.60;;;;;;5018917;28;20414;-77
2023/04/17 11:56:14;;;;;;;11.77;9.90;;;15.00;99.90;;;;;;5001151;28;20488;-77
2023/04/17 11:58:49;;;;;;;11.33;10.23;;;15.00;99.90;;;;;;5010589;28;20414;-77
2023/04/17 12:01:15;;;;;;;10.93;9.90;;;15.00;99.90;;;;;;5008850;28;20471;-77
2023/04/17 12:03:41;;;;;;;10.90;9.80;;;15.00;99.90;;;;;;5012042;28;20454;-77
2023/04/17 12:06:08;;;;;;;11.93;10.27;;;15.00;99.50;;;;;;5011199;28;20516;-77
2023/04/17 12:08:50;;;;;;;10.27;9.27;;;15.00;98.90;;;;;;5010892;28;20211;-77
2023/04/17 12:11:24;;;;;;;10.93;9.83;;;15.00;99.90;;;;;;5012188;28;20528;-77
2023/04/17 12:13:55;;;;;;;12.57;10.63;;;15.00;99.90;;;;;;5006806;28;21000;-77
2023/04/17 12:16:23;;;;;;;11.63;10.43;;;15.10;99.90;;;;;;5008971;28;20429;-77
2023/04/17 12:18:49;;;;;;;14.57;11.13;;;15.10;99.40;;;;;;5012120;28;20430;-77
2023/04/17 12:21:15;;;;;;;12.07;10.23;;;15.10;98.20;;;;;;5009505;28;20470;-77
2023/04/17 12:23:41;;;;;;;13.03;10.40;;;15.10;98.80;;;;;;5010664;28;20421;-77
2023/04/17 12:26:07;;;;;;;12.33;10.10;;;15.20;99.00;;;;;;5011258;28;20179;-77
2023/04/17 12:28:33;;;;;;;12.00;10.80;;;15.10;97.90;;;;;;5010243;28;20421;-77
2023/04/17 12:30:59;;;;;;;13.20;11.93;;;15.10;98.50;;;;;;5011057;28;20438;-78